Time;durP1;ratioP1;P1;durP2;ratioP2;P2;SDS_P1;SDS_P2;PMS_P1;PMS_P2;Temp;Humidity;BMP_temperature;BMP_pressure;BME280_temperature;BME280_humidity;BME280_pressure;Samples;Min_cycle;Max_cycle;Signal;HPM_P1;HPM_P2
2023/10/02 00:01:17;;;;;;;9.90;6.70;;;21.10;99.90;;;;;;5096708;28;20243;-87
2023/10/02 00:03:45;;;;;;;10.77;6.30;;;21.10;99.90;;;;;;5080878;28;20214;-87
2023/10/02 00:06:16;;;;;;;11.33;6.87;;;21.10;99.90;;;;;;5096236;28;20241;-87
2023/10/02 00:08:51;;;;;;;10.10;6.47;;;21.10;99.90;;;;;;5083121;28;20182;-87
2023/10/02 00:11:40;;;;;;;10.53;6.63;;;21.10;99.90;;;;;;5074539;28;20208;-87
2023/10/02 00:14:20;;;;;;;10.13;6.53;;;21.10;99.90;;;;;;5088586;28;20175;-87
2023/10/02 00:16:58;;;;;;;10.73;6.73;;;21.00;99.90;;;;;;5074353;28;20210;-87
2023/10/02 00:19:38;;;;;;;10.13;6.60;;;21.00;99.90;;;;;;5087628;28;20462;-87
2023/10/02 00:22:09;;;;;;;11.67;6.80;;;20.90;99.90;;;;;;5075681;28;20184;-87
2023/10/02 00:24:37;;;;;;;12.13;7.33;;;20.90;99.90;;;;;;5088222;28;20588;-87
2023/10/02 00:27:11;;;;;;;12.40;6.97;;;20.90;99.90;;;;;;5075687;28;20168;-87
2023/10/02 00:29:57;;;;;;;13.33;7.53;;;20.90;99.90;;;;;;5086463;28;20556;-87
2023/10/02 00:32:26;;;;;;;11.63;7.10;;;20.80;99.90;;;;;;5072005;28;20237;-86
2023/10/02 00:34:52;;;;;;;11.50;6.67;;;20.80;99.90;;;;;;5085440;28;20463;-86
2023/10/02 00:37:24;;;;;;;11.30;7.57;;;20.80;99.90;;;;;;5071330;28;20167;-87
2023/10/02 00:39:52;;;;;;;11.87;7.40;;;20.90;99.90;;;;;;5083826;28;20190;-86
2023/10/02 00:42:24;;;;;;;11.23;6.57;;;20.90;99.90;;;;;;5070882;28;20529;-86
2023/10/02 00:44:54;;;;;;;10.60;6.67;;;20.90;99.90;;;;;;5084029;28;20206;-86
2023/10/02 00:47:41;;;;;;;12.97;7.73;;;20.90;99.90;;;;;;5073053;28;20183;-86
2023/10/02 00:50:12;;;;;;;12.87;7.50;;;20.90;99.90;;;;;;5085469;28;20178;-86
2023/10/02 00:52:41;;;;;;;13.40;8.10;;;20.80;99.90;;;;;;5072893;28;20180;-87
2023/10/02 00:55:14;;;;;;;11.60;7.17;;;20.80;99.90;;;;;;5085674;28;20163;-86
2023/10/02 00:57:41;;;;;;;11.40;6.97;;;20.80;99.90;;;;;;5076198;28;20453;-86
2023/10/02 01:00:22;;;;;;;12.13;7.53;;;20.80;99.90;;;;;;5084849;28;20198;-86
2023/10/02 01:02:57;;;;;;;11.20;6.93;;;20.80;99.90;;;;;;5076020;28;20168;-86
2023/10/02 01:08:42;;;;;;;11.07;6.83;;;20.90;99.90;;;;;;5076209;28;20304;-86
2023/10/02 01:11:13;;;;;;;11.73;7.17;;;20.90;99.90;;;;;;5080936;28;20226;-86
2023/10/02 01:13:45;;;;;;;12.17;6.70;;;20.90;99.90;;;;;;5094100;28;20194;-86
2023/10/02 01:16:17;;;;;;;11.70;7.00;;;20.90;99.90;;;;;;5082210;28;20247;-86
2023/10/02 01:18:44;;;;;;;10.97;6.77;;;20.90;99.90;;;;;;5093626;28;20183;-86
2023/10/02 01:21:11;;;;;;;14.17;7.00;;;20.90;99.90;;;;;;5080348;28;20190;-86
2023/10/02 01:26:35;;;;;;;10.37;6.50;;;20.90;99.90;;;;;;5080742;28;20442;-87
2023/10/02 01:29:04;;;;;;;10.63;6.80;;;20.90;99.90;;;;;;5092708;28;20179;-87
2023/10/02 01:31:44;;;;;;;9.83;6.47;;;20.90;99.90;;;;;;5078599;28;20185;-87
2023/10/02 01:34:32;;;;;;;11.70;6.23;;;20.90;99.90;;;;;;5069977;28;20619;-87
2023/10/02 01:36:58;;;;;;;10.50;5.73;;;20.90;99.90;;;;;;5084744;28;20213;-87
2023/10/02 01:39:27;;;;;;;9.47;5.87;;;20.90;99.90;;;;;;5072732;28;20202;-86
2023/10/02 01:41:56;;;;;;;9.90;6.40;;;20.90;99.90;;;;;;5084492;28;20281;-86
2023/10/02 01:44:22;;;;;;;10.07;6.33;;;20.90;99.90;;;;;;5071398;28;20459;-86
2023/10/02 01:46:55;;;;;;;10.33;6.30;;;20.90;99.90;;;;;;5082550;28;20461;-86
2023/10/02 01:49:30;;;;;;;10.77;6.53;;;20.90;99.90;;;;;;5074329;28;20257;-86
2023/10/02 01:52:01;;;;;;;9.57;6.37;;;20.90;99.90;;;;;;5082686;28;20186;-86
2023/10/02 01:54:29;;;;;;;8.93;5.77;;;20.90;99.90;;;;;;5073439;28;20175;-86
2023/10/02 01:56:56;;;;;;;11.03;6.37;;;20.90;99.90;;;;;;5081578;28;20207;-86
2023/10/02 01:59:24;;;;;;;9.93;6.40;;;20.90;99.90;;;;;;5078285;28;20251;-86
2023/10/02 02:01:56;;;;;;;10.80;6.87;;;20.90;99.90;;;;;;5071401;28;20189;-86
2023/10/02 02:04:24;;;;;;;9.77;6.27;;;20.90;99.90;;;;;;5087601;28;20194;-86
2023/10/02 02:06:58;;;;;;;10.37;6.07;;;20.90;99.90;;;;;;5086943;28;20219;-86
2023/10/02 02:09:33;;;;;;;11.13;6.40;;;20.90;99.90;;;;;;5086989;28;20529;-86
2023/10/02 02:12:14;;;;;;;11.43;6.37;;;20.90;99.90;;;;;;5086498;28;20167;-86
2023/10/02 02:14:50;;;;;;;9.30;6.20;;;20.80;99.90;;;;;;5087005;28;20231;-86
2023/10/02 02:17:18;;;;;;;8.80;5.87;;;20.80;99.90;;;;;;5089286;28;20217;-86
2023/10/02 02:19:50;;;;;;;10.23;6.43;;;20.80;99.90;;;;;;5079595;28;20270;-87
2023/10/02 02:22:32;;;;;;;10.00;5.87;;;20.80;99.90;;;;;;5078110;28;20182;-87
2023/10/02 02:24:58;;;;;;;9.67;6.30;;;20.80;99.90;;;;;;5079766;28;20209;-87
2023/10/02 02:27:25;;;;;;;8.30;5.27;;;20.80;99.90;;;;;;5078603;28;20426;-87
2023/10/02 02:29:56;;;;;;;10.17;6.23;;;20.80;99.90;;;;;;5089062;28;20187;-86
2023/10/02 02:32:36;;;;;;;10.37;5.90;;;20.80;99.90;;;;;;5075438;28;20187;-87
2023/10/02 02:35:09;;;;;;;9.90;5.47;;;20.80;99.90;;;;;;5093195;28;20403;-87
2023/10/02 02:37:36;;;;;;;9.40;5.97;;;20.80;99.90;;;;;;5090057;28;20387;-86
2023/10/02 02:42:52;;;;;;;9.70;5.73;;;20.80;99.90;;;;;;5088915;28;20182;-86
2023/10/02 02:45:29;;;;;;;9.27;6.23;;;20.80;99.90;;;;;;5084309;28;20323;-86
2023/10/02 02:48:10;;;;;;;9.50;6.03;;;20.80;99.90;;;;;;5089202;28;20167;-86
2023/10/02 02:50:41;;;;;;;10.87;6.10;;;20.80;99.90;;;;;;5085348;28;20174;-86
2023/10/02 02:53:16;;;;;;;8.10;5.40;;;20.80;99.90;;;;;;5088434;28;20286;-86
2023/10/02 02:55:58;;;;;;;9.67;5.63;;;20.80;99.90;;;;;;5083842;28;20174;-86
2023/10/02 02:58:25;;;;;;;7.80;5.20;;;20.80;99.90;;;;;;5087232;28;20174;-86
2023/10/02 03:00:53;;;;;;;9.40;6.17;;;20.80;99.90;;;;;;5082458;28;20171;-87
2023/10/02 03:03:33;;;;;;;10.47;6.30;;;20.70;99.90;;;;;;5090313;28;20449;-86
2023/10/02 03:05:58;;;;;;;9.93;5.90;;;20.70;99.90;;;;;;5082378;28;20183;-86
2023/10/02 03:08:41;;;;;;;10.30;6.20;;;20.70;99.90;;;;;;5090532;28;20187;-86
2023/10/02 03:11:07;;;;;;;9.37;5.73;;;20.70;99.90;;;;;;5082613;28;20430;-87
2023/10/02 03:13:34;;;;;;;10.50;6.20;;;20.70;99.90;;;;;;5088534;28;20626;-87
2023/10/02 03:16:10;;;;;;;9.67;6.13;;;20.70;99.90;;;;;;5084558;28;20171;-87
2023/10/02 03:18:43;;;;;;;8.13;5.40;;;20.70;99.90;;;;;;5095460;28;20185;-87
2023/10/02 03:21:21;;;;;;;9.97;6.10;;;20.70;99.90;;;;;;5085391;28;20175;-87
2023/10/02 03:23:48;;;;;;;10.60;6.03;;;20.70;99.90;;;;;;5095169;28;20267;-87
2023/10/02 03:29:02;;;;;;;8.80;5.63;;;20.70;99.90;;;;;;5097335;28;20174;-87
2023/10/02 03:31:51;;;;;;;9.20;5.80;;;20.70;99.90;;;;;;5086179;28;20178;-87
2023/10/02 03:34:34;;;;;;;9.73;6.13;;;20.70;99.90;;;;;;5095981;28;20197;-87
2023/10/02 03:42:25;;;;;;;9.93;5.70;;;20.70;99.90;;;;;;5090536;28;20630;-87
2023/10/02 03:44:58;;;;;;;8.37;5.70;;;20.70;99.90;;;;;;5092521;28;20195;-87
2023/10/02 03:47:33;;;;;;;9.60;5.60;;;20.70;99.90;;;;;;5088542;28;20215;-87
2023/10/02 03:50:03;;;;;;;9.13;5.80;;;20.70;99.90;;;;;;5093932;28;20163;-86
2023/10/02 03:52:36;;;;;;;10.23;5.87;;;20.70;99.90;;;;;;5087603;28;20171;-86
2023/10/02 03:55:15;;;;;;;8.70;5.50;;;20.70;99.90;;;;;;5093557;28;20454;-87
2023/10/02 03:57:47;;;;;;;8.73;6.03;;;20.70;99.90;;;;;;5075638;28;20262;-87
2023/10/02 04:00:26;;;;;;;9.93;6.10;;;20.70;99.90;;;;;;5091562;28;20189;-87
2023/10/02 04:02:56;;;;;;;9.37;5.70;;;20.70;99.90;;;;;;5085376;28;20175;-86
2023/10/02 04:05:42;;;;;;;9.03;5.70;;;20.70;99.90;;;;;;5090032;28;20171;-86
2023/10/02 04:08:21;;;;;;;10.90;6.87;;;20.60;99.90;;;;;;5080142;28;20268;-86
2023/10/02 04:10:55;;;;;;;9.53;5.57;;;20.60;99.90;;;;;;5077406;28;20192;-87
2023/10/02 04:13:25;;;;;;;10.27;6.00;;;20.60;99.90;;;;;;5085923;28;20179;-87
2023/10/02 04:16:28;;;;;;;7.17;5.33;;;20.60;99.90;;;;;;5091470;28;20176;-86
2023/10/02 04:18:49;;;;;;;8.30;5.70;;;20.60;99.90;;;;;;5081340;28;20512;-86
2023/10/02 04:21:22;;;;;;;9.17;6.03;;;20.60;99.90;;;;;;5079186;28;20205;-88
2023/10/02 04:23:56;;;;;;;8.73;5.40;;;20.60;99.90;;;;;;5080717;28;20490;-87
2023/10/02 04:26:24;;;;;;;9.27;6.20;;;20.60;99.90;;;;;;5077692;28;20178;-87
2023/10/02 04:29:13;;;;;;;8.87;5.50;;;20.60;99.90;;;;;;5082529;28;20226;-87
2023/10/02 04:31:44;;;;;;;9.20;5.20;;;20.60;99.90;;;;;;5079628;28;20171;-87
2023/10/02 04:34:23;;;;;;;10.83;5.80;;;20.60;99.90;;;;;;5081109;28;20180;-87
2023/10/02 04:36:53;;;;;;;8.47;5.37;;;20.60;99.90;;;;;;5079973;28;20171;-87
2023/10/02 04:42:24;;;;;;;11.37;6.43;;;20.60;99.90;;;;;;5078569;28;20189;-88
2023/10/02 04:44:56;;;;;;;8.17;5.33;;;20.50;99.90;;;;;;5074342;28;20216;-87
2023/10/02 04:47:23;;;;;;;9.83;6.03;;;20.50;99.90;;;;;;5079121;28;20171;-87
2023/10/02 04:55:43;;;;;;;8.27;5.53;;;20.50;99.90;;;;;;5074612;28;20256;-87
2023/10/02 04:58:14;;;;;;;9.30;5.67;;;20.50;99.90;;;;;;5081022;28;20178;-87
2023/10/02 05:01:23;;;;;;;9.00;5.83;;;20.50;99.90;;;;;;5073301;28;20191;-87
2023/10/02 05:03:54;;;;;;;8.23;5.50;;;20.50;99.90;;;;;;5074558;28;20691;-87
2023/10/02 05:09:26;;;;;;;8.67;5.70;;;20.50;99.90;;;;;;5086136;28;20457;-87
2023/10/02 05:11:55;;;;;;;9.73;6.03;;;20.50;99.90;;;;;;5072370;28;20172;-87
2023/10/02 05:14:29;;;;;;;8.50;5.63;;;20.50;99.90;;;;;;5079915;28;20175;-87
2023/10/02 05:17:16;;;;;;;7.97;5.70;;;20.50;99.90;;;;;;5093189;28;20167;-87
2023/10/02 05:19:56;;;;;;;8.80;5.50;;;20.50;99.90;;;;;;5080079;28;20171;-87
2023/10/02 05:22:30;;;;;;;9.97;6.10;;;20.50;99.90;;;;;;5089189;28;20185;-87
2023/10/02 05:25:07;;;;;;;9.33;5.67;;;20.50;99.90;;;;;;5080962;28;20210;-87
2023/10/02 05:27:37;;;;;;;9.87;6.20;;;20.50;99.90;;;;;;5071438;28;20175;-87
2023/10/02 05:30:18;;;;;;;8.37;5.80;;;20.50;99.90;;;;;;5087393;28;20175;-87
2023/10/02 05:32:43;;;;;;;8.57;5.67;;;20.50;99.90;;;;;;5072944;28;20183;-87
2023/10/02 05:37:51;;;;;;;8.93;5.57;;;20.50;99.90;;;;;;5073300;28;20198;-87
2023/10/02 05:50:57;;;;;;;11.93;6.63;;;20.40;99.90;;;;;;5078913;28;20274;-87
2023/10/02 05:53:29;;;;;;;9.57;6.40;;;20.40;99.90;;;;;;5088992;28;20282;-87
2023/10/02 05:56:05;;;;;;;10.33;6.73;;;20.40;99.90;;;;;;5084096;28;20178;-87
2023/10/02 05:58:41;;;;;;;10.63;6.40;;;20.40;99.90;;;;;;5073704;28;20289;-87
2023/10/02 06:01:23;;;;;;;10.10;6.60;;;20.40;99.90;;;;;;5079930;28;20203;-87
2023/10/02 06:04:00;;;;;;;12.63;6.77;;;20.50;99.90;;;;;;5068111;28;20245;-87
2023/10/02 06:06:27;;;;;;;10.37;6.37;;;20.50;99.90;;;;;;5078725;28;20763;-87
2023/10/02 06:09:12;;;;;;;10.13;6.37;;;20.40;99.90;;;;;;5067175;28;20167;-87
2023/10/02 06:11:59;;;;;;;9.67;6.53;;;20.40;99.90;;;;;;5079829;28;20202;-87
2023/10/02 06:14:38;;;;;;;9.27;6.50;;;20.40;99.90;;;;;;5067420;28;20174;-87
2023/10/02 06:17:16;;;;;;;11.37;7.10;;;20.40;99.90;;;;;;5084074;28;20179;-87
2023/10/02 06:19:45;;;;;;;9.90;6.10;;;20.40;99.90;;;;;;5086572;28;20189;-87
2023/10/02 06:22:15;;;;;;;9.53;5.97;;;20.40;99.90;;;;;;5077250;28;20210;-87
2023/10/02 06:24:42;;;;;;;10.77;6.87;;;20.40;99.90;;;;;;5085623;28;20203;-87
2023/10/02 06:27:22;;;;;;;8.90;6.07;;;20.50;99.90;;;;;;5081945;28;20263;-87
2023/10/02 06:29:49;;;;;;;10.27;6.50;;;20.50;99.90;;;;;;5069452;28;20469;-87
2023/10/02 06:32:19;;;;;;;11.10;6.73;;;20.50;99.90;;;;;;5077904;28;20171;-87
2023/10/02 06:34:50;;;;;;;9.33;6.27;;;20.50;99.90;;;;;;5065774;28;20176;-87
2023/10/02 06:37:25;;;;;;;10.57;6.43;;;20.50;99.90;;;;;;5074279;28;20186;-87
2023/10/02 06:43:03;;;;;;;9.80;6.40;;;20.50;99.90;;;;;;5076794;28;20279;-87
2023/10/02 06:45:26;;;;;;;11.23;7.50;;;20.60;99.90;;;;;;5066244;28;20266;-87
2023/10/02 06:47:56;;;;;;;10.47;6.80;;;20.60;99.90;;;;;;5084966;28;20287;-87
2023/10/02 06:52:51;;;;;;;10.50;6.90;;;20.70;99.90;;;;;;5079475;28;20253;-87
2023/10/02 06:55:24;;;;;;;13.43;7.83;;;20.70;99.90;;;;;;5066739;28;20179;-87
2023/10/02 06:57:53;;;;;;;9.80;6.83;;;20.70;99.90;;;;;;5075656;28;20194;-87
2023/10/02 07:00:21;;;;;;;10.83;7.07;;;20.60;99.90;;;;;;5068367;28;20383;-87
2023/10/02 07:03:03;;;;;;;10.57;7.47;;;20.60;99.90;;;;;;5074488;28;20167;-87
2023/10/02 07:05:33;;;;;;;12.73;7.47;;;20.70;99.90;;;;;;5087174;28;20203;-87
2023/10/02 07:08:01;;;;;;;14.63;8.63;;;20.70;99.90;;;;;;5073354;28;20178;-87
2023/10/02 07:10:42;;;;;;;13.47;8.03;;;20.80;99.90;;;;;;5085955;28;20163;-87
2023/10/02 07:13:23;;;;;;;10.83;6.73;;;20.80;99.90;;;;;;5071888;28;20179;-87
2023/10/02 07:15:55;;;;;;;11.70;7.20;;;20.90;99.90;;;;;;5066700;28;20160;-87
2023/10/02 07:18:35;;;;;;;11.53;7.13;;;20.90;99.90;;;;;;5077833;28;20181;-87
2023/10/02 07:21:07;;;;;;;11.67;6.97;;;20.90;99.90;;;;;;5066137;28;20175;-87
2023/10/02 07:23:39;;;;;;;9.83;6.60;;;21.00;99.90;;;;;;5076279;28;20203;-87
2023/10/02 07:26:46;;;;;;;9.90;6.40;;;21.10;99.90;;;;;;5067054;28;20163;-87
2023/10/02 07:29:07;;;;;;;12.13;7.30;;;21.10;99.90;;;;;;5077386;28;20240;-87
2023/10/02 07:31:35;;;;;;;10.57;7.13;;;21.20;99.90;;;;;;5065269;28;20335;-87
2023/10/02 07:34:02;;;;;;;11.23;7.10;;;21.20;99.90;;;;;;5078358;28;20171;-87
2023/10/02 07:36:32;;;;;;;10.53;6.87;;;21.20;99.90;;;;;;5065219;28;20187;-87
2023/10/02 07:39:01;;;;;;;11.07;7.07;;;21.30;99.90;;;;;;5076829;28;20449;-87
2023/10/02 07:41:28;;;;;;;11.67;7.13;;;21.30;99.90;;;;;;5063630;28;20178;-87
2023/10/02 07:44:07;;;;;;;11.77;6.93;;;21.40;99.90;;;;;;5076574;28;20263;-87
2023/10/02 07:46:36;;;;;;;10.83;7.17;;;21.40;99.90;;;;;;5066894;28;20372;-87
2023/10/02 07:49:04;;;;;;;11.70;7.27;;;21.50;99.90;;;;;;5072071;28;20164;-87
2023/10/02 07:51:36;;;;;;;12.83;7.97;;;21.50;99.90;;;;;;5066287;28;20183;-88
2023/10/02 07:54:13;;;;;;;11.87;7.37;;;21.60;99.90;;;;;;5076735;28;20163;-87
2023/10/02 07:56:40;;;;;;;12.17;7.90;;;21.70;99.80;;;;;;5065158;28;20175;-87
2023/10/02 07:59:07;;;;;;;12.53;7.90;;;21.80;99.90;;;;;;5078659;28;20171;-88
2023/10/02 08:01:33;;;;;;;14.87;9.73;;;21.80;99.20;;;;;;5088801;28;20186;-88
2023/10/02 08:04:01;;;;;;;13.33;7.97;;;21.90;99.60;;;;;;5082590;28;20485;-88
2023/10/02 08:06:33;;;;;;;13.57;8.73;;;22.00;99.20;;;;;;5085808;28;20182;-88
2023/10/02 08:11:56;;;;;;;13.77;8.37;;;22.20;98.80;;;;;;5086778;28;20446;-89
2023/10/02 08:17:21;;;;;;;15.73;8.87;;;22.40;98.40;;;;;;5087709;28;20173;-89
2023/10/02 08:19:59;;;;;;;11.90;8.10;;;22.60;98.10;;;;;;5083214;28;20233;-89
2023/10/02 08:22:44;;;;;;;15.63;8.77;;;22.60;97.40;;;;;;5068587;28;20285;-88
2023/10/02 08:25:14;;;;;;;14.17;8.90;;;22.70;97.40;;;;;;5071331;28;20194;-89
2023/10/02 08:27:44;;;;;;;14.70;8.77;;;22.80;97.10;;;;;;5086304;28;20431;-88
2023/10/02 08:30:27;;;;;;;14.57;9.03;;;23.00;97.40;;;;;;5075261;28;20179;-89
2023/10/02 08:33:09;;;;;;;14.13;9.03;;;23.00;97.50;;;;;;5088459;28;20159;-89
2023/10/02 08:35:46;;;;;;;17.87;9.90;;;23.00;97.00;;;;;;5082647;28;20167;-89
2023/10/02 08:38:24;;;;;;;15.87;9.43;;;22.90;97.50;;;;;;5078047;28;20179;-88
2023/10/02 08:41:10;;;;;;;13.80;8.27;;;22.90;97.60;;;;;;5079739;28;20246;-88
2023/10/02 08:43:42;;;;;;;14.32;9.05;;;22.80;97.70;;;;;;5069391;28;20215;-88
2023/10/02 08:46:19;;;;;;;15.60;9.10;;;22.80;98.20;;;;;;5083897;28;20251;-88
2023/10/02 08:48:47;;;;;;;15.30;8.93;;;22.70;98.30;;;;;;5090987;28;20185;-88
2023/10/02 08:51:28;;;;;;;14.60;9.03;;;22.70;98.30;;;;;;5075471;28;20179;-88
2023/10/02 08:53:58;;;;;;;14.27;8.80;;;22.70;98.50;;;;;;5086344;28;20648;-88
2023/10/02 08:56:37;;;;;;;13.43;8.63;;;22.70;98.50;;;;;;5070960;28;20230;-88
2023/10/02 08:59:16;;;;;;;14.93;9.10;;;22.80;98.40;;;;;;5074339;28;20229;-88
2023/10/02 09:01:46;;;;;;;14.00;8.60;;;22.80;98.50;;;;;;5076437;28;20557;-88
2023/10/02 09:04:21;;;;;;;14.90;9.60;;;22.80;98.90;;;;;;5064700;28;20210;-89
2023/10/02 09:06:58;;;;;;;13.43;9.00;;;22.80;98.70;;;;;;5076111;28;20641;-88
2023/10/02 09:09:27;;;;;;;16.63;9.60;;;22.90;98.60;;;;;;5067593;28;20174;-88
2023/10/02 09:12:03;;;;;;;15.63;9.00;;;22.90;98.90;;;;;;5077726;28;20163;-88
2023/10/02 09:14:39;;;;;;;17.17;9.17;;;22.90;98.80;;;;;;5066709;28;20179;-88
2023/10/02 09:17:19;;;;;;;15.60;9.17;;;22.90;98.90;;;;;;5080295;28;20206;-89
2023/10/02 09:20:07;;;;;;;14.73;8.73;;;22.90;99.10;;;;;;5066832;28;20179;-88
2023/10/02 09:22:43;;;;;;;16.37;9.50;;;22.90;99.20;;;;;;5078529;28;20291;-89
2023/10/02 09:25:23;;;;;;;15.75;9.25;;;23.00;99.10;;;;;;5066346;28;20276;-88
2023/10/02 09:28:00;;;;;;;16.67;9.27;;;23.00;99.30;;;;;;5072874;28;20249;-89
2023/10/02 09:30:36;;;;;;;14.95;8.38;;;23.00;99.30;;;;;;5083802;28;20572;-89
2023/10/02 09:33:18;;;;;;;15.82;9.13;;;23.00;99.30;;;;;;5080645;28;20175;-88
2023/10/02 09:35:50;;;;;;;15.52;9.77;;;23.10;99.30;;;;;;5064380;28;20155;-89
2023/10/02 09:38:31;;;;;;;14.75;9.45;;;23.10;99.10;;;;;;5075131;28;20647;-88
2023/10/02 09:43:31;;;;;;;14.50;8.85;;;23.20;99.10;;;;;;5076274;28;20229;-88
2023/10/02 09:46:15;;;;;;;16.05;9.65;;;23.20;99.30;;;;;;5064134;28;20591;-89
2023/10/02 09:49:02;;;;;;;16.23;9.27;;;23.20;99.30;;;;;;5079195;28;20175;-88
2023/10/02 09:52:09;;;;;;;18.45;9.35;;;23.30;99.10;;;;;;5067516;28;20728;-88
2023/10/02 09:54:41;;;;;;;22.63;9.93;;;23.30;98.40;;;;;;5077562;28;20280;-88
2023/10/02 09:57:12;;;;;;;23.50;11.02;;;23.40;99.90;;;;;;5082910;28;20274;-88
2023/10/02 09:59:49;;;;;;;17.38;9.70;;;23.40;99.90;;;;;;5078077;28;20425;-88
2023/10/02 10:03:06;;;;;;;22.42;10.65;;;23.50;99.90;;;;;;5079442;28;20171;-88
2023/10/02 10:11:10;;;;;;;19.20;10.43;;;23.60;99.90;;;;;;5069285;28;20249;-88
2023/10/02 10:13:37;;;;;;;17.38;10.23;;;23.70;99.90;;;;;;5070042;28;20475;-89
2023/10/02 10:16:18;;;;;;;19.00;10.82;;;23.70;99.80;;;;;;5062957;28;20227;-88
2023/10/02 10:21:56;;;;;;;18.30;10.82;;;23.80;99.50;;;;;;5064188;28;20410;-88
2023/10/02 10:24:35;;;;;;;20.73;10.02;;;23.90;99.40;;;;;;5067444;28;20369;-88
2023/10/02 10:27:02;;;;;;;19.50;10.25;;;23.80;99.50;;;;;;5084344;28;20440;-88
2023/10/02 10:29:43;;;;;;;16.45;10.02;;;23.80;99.10;;;;;;5081430;28;20171;-88
2023/10/02 10:32:23;;;;;;;15.45;9.65;;;23.90;99.30;;;;;;5083382;28;20166;-88
2023/10/02 10:37:56;;;;;;;17.77;10.30;;;24.00;99.00;;;;;;5084267;28;20239;-88
2023/10/02 10:40:43;;;;;;;16.10;10.38;;;24.10;98.70;;;;;;5069392;28;20460;-88
2023/10/02 10:43:12;;;;;;;18.70;11.02;;;24.00;98.70;;;;;;5082525;28;20239;-88
2023/10/02 10:45:40;;;;;;;14.90;9.55;;;24.00;99.20;;;;;;5074611;28;20163;-88
2023/10/02 10:48:18;;;;;;;16.85;10.48;;;24.00;98.80;;;;;;5085183;28;20182;-88
2023/10/02 10:51:02;;;;;;;17.73;10.50;;;24.10;98.60;;;;;;5077398;28;20164;-88
2023/10/02 10:53:28;;;;;;;15.63;9.90;;;24.10;98.40;;;;;;5065884;28;20194;-88
2023/10/02 10:56:17;;;;;;;16.05;10.02;;;24.10;98.20;;;;;;5074943;28;20194;-88
2023/10/02 10:58:44;;;;;;;18.30;10.33;;;24.10;98.10;;;;;;5072638;28;20406;-88
2023/10/02 11:01:16;;;;;;;15.93;9.63;;;24.10;98.10;;;;;;5075271;28;20180;-88
2023/10/02 11:03:44;;;;;;;16.40;9.37;;;24.10;98.20;;;;;;5062452;28;20203;-88
2023/10/02 11:06:11;;;;;;;15.57;9.30;;;24.10;98.20;;;;;;5079996;28;20331;-88
2023/10/02 11:08:38;;;;;;;20.40;10.07;;;24.10;98.20;;;;;;5081927;28;20171;-88
2023/10/02 11:11:19;;;;;;;17.77;10.90;;;24.10;98.40;;;;;;5075455;28;20167;-88
2023/10/02 11:13:54;;;;;;;19.33;10.17;;;24.10;98.40;;;;;;5059709;28;20182;-88
2023/10/02 11:16:34;;;;;;;18.40;10.37;;;24.10;98.40;;;;;;5073322;28;20195;-88
2023/10/02 11:22:19;;;;;;;17.23;10.17;;;24.20;98.40;;;;;;5009798;28;20235;-88
2023/10/02 11:24:54;;;;;;;15.90;10.43;;;24.20;98.50;;;;;;5012798;28;20236;-88
2023/10/02 11:27:21;;;;;;;16.77;10.23;;;24.20;98.40;;;;;;5048867;28;20182;-87
2023/10/02 11:30:05;;;;;;;15.30;10.17;;;24.20;98.30;;;;;;5063938;28;20446;-85
2023/10/02 11:32:54;;;;;;;17.53;10.83;;;24.20;98.30;;;;;;5072730;28;20356;-85
2023/10/02 11:35:29;;;;;;;18.20;9.77;;;24.20;98.80;;;;;;5067422;28;20171;-85
2023/10/02 11:37:56;;;;;;;17.23;10.13;;;24.20;98.80;;;;;;5078297;28;20281;-85
2023/10/02 11:40:25;;;;;;;16.37;10.00;;;24.20;98.60;;;;;;5080051;28;20214;-85
2023/10/02 11:42:51;;;;;;;16.17;10.20;;;24.20;98.40;;;;;;5077649;28;20206;-85
2023/10/02 11:45:17;;;;;;;15.43;9.27;;;24.20;98.70;;;;;;5067783;28;20208;-85
2023/10/02 11:47:43;;;;;;;15.20;9.97;;;24.20;98.60;;;;;;5076850;28;20417;-85
2023/10/02 11:50:09;;;;;;;17.40;10.70;;;24.20;98.70;;;;;;5065919;28;20252;-85
2023/10/02 11:52:34;;;;;;;16.87;10.17;;;24.20;99.00;;;;;;5078840;28;20465;-85
2023/10/02 11:55:00;;;;;;;16.23;9.70;;;24.20;98.60;;;;;;5065193;28;20528;-87
2023/10/02 11:57:29;;;;;;;15.70;9.77;;;24.20;98.60;;;;;;5077428;28;20170;-87
2023/10/02 11:59:58;;;;;;;18.50;9.50;;;24.20;98.70;;;;;;5084374;28;20380;-87
2023/10/02 12:02:25;;;;;;;16.63;10.00;;;24.20;98.90;;;;;;5073539;28;20176;-86
2023/10/02 12:04:52;;;;;;;15.27;9.30;;;24.20;98.80;;;;;;5086204;28;20741;-87
2023/10/02 12:07:18;;;;;;;15.57;10.00;;;24.30;99.10;;;;;;5078011;28;20164;-87
2023/10/02 12:09:47;;;;;;;16.40;10.50;;;24.30;99.00;;;;;;5084247;28;20232;-87
2023/10/02 12:12:16;;;;;;;16.73;10.13;;;24.30;98.80;;;;;;5080466;28;20677;-87
2023/10/02 12:14:42;;;;;;;16.17;10.17;;;24.40;98.70;;;;;;5067678;28;20210;-87
2023/10/02 12:17:11;;;;;;;15.13;9.27;;;24.40;98.70;;;;;;5072770;28;20167;-87
2023/10/02 12:19:39;;;;;;;16.07;9.20;;;24.40;98.60;;;;;;5073958;28;20172;-86
2023/10/02 12:22:09;;;;;;;15.10;9.20;;;24.40;98.50;;;;;;5071977;28;20218;-87
2023/10/02 12:24:35;;;;;;;13.50;8.83;;;24.40;98.60;;;;;;5075553;28;20360;-87
2023/10/02 12:27:01;;;;;;;17.50;9.63;;;24.40;98.50;;;;;;5067358;28;20221;-87
2023/10/02 12:29:29;;;;;;;16.30;9.10;;;24.40;98.50;;;;;;5075860;28;20337;-86
2023/10/02 12:31:55;;;;;;;14.90;9.00;;;24.40;98.60;;;;;;5064225;28;20233;-87
2023/10/02 12:34:21;;;;;;;15.80;9.50;;;24.40;98.60;;;;;;5074589;28;20179;-87
2023/10/02 12:36:49;;;;;;;15.17;8.77;;;24.40;98.60;;;;;;5061739;28;20388;-86
2023/10/02 12:39:16;;;;;;;15.97;9.93;;;24.40;98.80;;;;;;5072289;28;20199;-86
2023/10/02 12:41:45;;;;;;;15.90;9.50;;;24.40;98.80;;;;;;5060388;28;20172;-87
2023/10/02 12:44:11;;;;;;;15.43;8.93;;;24.40;98.80;;;;;;5073095;28;20360;-87
2023/10/02 12:46:46;;;;;;;15.37;9.17;;;24.40;98.80;;;;;;5058983;28;20260;-87
2023/10/02 12:49:13;;;;;;;13.77;8.23;;;24.40;98.80;;;;;;5073227;28;20257;-86
2023/10/02 12:51:40;;;;;;;14.97;8.90;;;24.40;98.90;;;;;;5060528;28;20178;-87
2023/10/02 12:54:07;;;;;;;13.77;8.50;;;24.40;99.10;;;;;;5074642;28;20171;-86
2023/10/02 12:56:33;;;;;;;13.17;7.93;;;24.40;99.00;;;;;;5064304;28;20191;-87
2023/10/02 12:58:59;;;;;;;14.50;8.70;;;24.50;99.00;;;;;;5073034;28;20175;-86
2023/10/02 13:01:29;;;;;;;14.17;8.67;;;24.40;98.90;;;;;;5083142;28;20598;-86
2023/10/02 13:03:56;;;;;;;14.23;8.97;;;24.50;98.90;;;;;;5074827;28;20292;-87
2023/10/02 13:06:29;;;;;;;13.80;8.73;;;24.50;99.00;;;;;;5079506;28;20178;-87
2023/10/02 13:09:03;;;;;;;14.80;8.83;;;24.50;98.80;;;;;;5080619;28;20171;-87
2023/10/02 13:11:30;;;;;;;11.87;7.80;;;24.50;98.90;;;;;;5066847;28;20159;-87
2023/10/02 13:13:55;;;;;;;14.07;8.97;;;24.50;98.80;;;;;;5064867;28;20164;-87
2023/10/02 13:16:25;;;;;;;14.20;8.90;;;24.50;98.90;;;;;;5068799;28;20171;-87
2023/10/02 13:18:51;;;;;;;13.33;8.20;;;24.60;98.90;;;;;;5062436;28;20175;-86
2023/10/02 13:21:18;;;;;;;13.27;8.80;;;24.50;98.80;;;;;;5070213;28;20171;-86
2023/10/02 13:23:44;;;;;;;12.10;7.73;;;24.50;98.70;;;;;;5063065;28;20234;-86
2023/10/02 13:26:11;;;;;;;12.57;8.03;;;24.50;98.80;;;;;;5074309;28;20202;-87
2023/10/02 13:28:38;;;;;;;14.43;8.67;;;24.50;98.80;;;;;;5064353;28;20699;-87
2023/10/02 13:31:19;;;;;;;14.00;8.57;;;24.50;98.80;;;;;;5075125;28;20173;-87
2023/10/02 13:33:51;;;;;;;12.30;8.07;;;24.50;98.90;;;;;;5084020;28;20186;-86
2023/10/02 13:36:27;;;;;;;11.80;7.87;;;24.60;98.70;;;;;;5080314;28;20481;-87
2023/10/02 13:38:57;;;;;;;13.47;8.03;;;24.60;98.60;;;;;;5082238;28;20178;-87
2023/10/02 13:41:29;;;;;;;12.17;7.87;;;24.60;98.90;;;;;;5073927;28;20343;-87
2023/10/02 13:43:59;;;;;;;13.00;7.50;;;24.60;98.80;;;;;;5083550;28;20711;-87
2023/10/02 13:46:28;;;;;;;13.47;8.23;;;24.60;98.80;;;;;;5072330;28;20163;-86
2023/10/02 13:48:53;;;;;;;12.93;7.97;;;24.60;98.70;;;;;;5085589;28;20163;-87
2023/10/02 13:51:20;;;;;;;13.23;7.57;;;24.60;98.70;;;;;;5071791;28;20324;-86
2023/10/02 13:53:51;;;;;;;11.17;6.87;;;24.60;98.60;;;;;;5082499;28;20463;-87
2023/10/02 13:56:25;;;;;;;15.10;7.97;;;24.70;98.30;;;;;;5068732;28;20455;-86
2023/10/02 13:58:54;;;;;;;13.93;7.90;;;24.70;98.30;;;;;;5071947;28;20179;-86
2023/10/02 14:01:22;;;;;;;11.87;7.43;;;24.70;98.50;;;;;;5076018;28;20313;-87
2023/10/02 14:03:57;;;;;;;14.70;7.33;;;24.70;98.40;;;;;;5084667;28;20206;-87
2023/10/02 14:06:25;;;;;;;13.10;7.50;;;24.70;98.50;;;;;;5073950;28;20175;-87
2023/10/02 14:08:57;;;;;;;12.93;8.07;;;24.70;98.50;;;;;;5079821;28;20182;-86
2023/10/02 14:11:24;;;;;;;13.77;7.70;;;24.70;98.50;;;;;;5072619;28;20671;-87
2023/10/02 14:13:56;;;;;;;13.73;8.03;;;24.70;98.50;;;;;;5077325;28;20171;-87
2023/10/02 14:16:24;;;;;;;12.90;7.23;;;24.70;98.60;;;;;;5073088;28;20176;-87
2023/10/02 14:18:56;;;;;;;14.80;8.03;;;24.70;98.60;;;;;;5077665;28;20175;-87